sensor_id;sensor_type;location;lat;lon;timestamp;P1;durP1;ratioP1;P2;durP2;ratioP2
2784;SDS011;57944;48.722;9.316;2022-11-06T00:00:38;32.70;;;19.20;;
2784;SDS011;57944;48.722;9.316;2022-11-06T00:03:09;31.73;;;18.67;;
2784;SDS011;57944;48.722;9.316;2022-11-06T00:05:42;36.03;;;20.73;;
2784;SDS011;57944;48.722;9.316;2022-11-06T00:08:26;32.40;;;19.27;;
2784;SDS011;57944;48.722;9.316;2022-11-06T00:10:59;117.80;;;29.70;;
2784;SDS011;57944;48.722;9.316;2022-11-06T00:13:29;66.70;;;27.30;;
2784;SDS011;57944;48.722;9.316;2022-11-06T00:16:01;43.43;;;23.60;;
2784;SDS011;57944;48.722;9.316;2022-11-06T00:18:32;42.90;;;21.63;;
2784;SDS011;57944;48.722;9.316;2022-11-06T00:21:09;47.37;;;23.40;;
2784;SDS011;57944;48.722;9.316;2022-11-06T00:23:48;37.87;;;22.87;;
2784;SDS011;57944;48.722;9.316;2022-11-06T00:26:19;48.17;;;21.93;;
2784;SDS011;57944;48.722;9.316;2022-11-06T00:28:51;47.87;;;23.73;;
2784;SDS011;57944;48.722;9.316;2022-11-06T00:31:23;76.13;;;28.07;;
2784;SDS011;57944;48.722;9.316;2022-11-06T00:33:55;96.97;;;29.80;;
2784;SDS011;57944;48.722;9.316;2022-11-06T00:36:30;48.17;;;22.70;;
2784;SDS011;57944;48.722;9.316;2022-11-06T00:39:01;37.03;;;21.67;;
2784;SDS011;57944;48.722;9.316;2022-11-06T00:41:31;31.40;;;20.63;;
2784;SDS011;57944;48.722;9.316;2022-11-06T00:44:02;43.00;;;22.93;;
2784;SDS011;57944;48.722;9.316;2022-11-06T00:46:32;69.60;;;23.40;;
2784;SDS011;57944;48.722;9.316;2022-11-06T00:49:02;61.97;;;24.77;;
2784;SDS011;57944;48.722;9.316;2022-11-06T00:51:36;53.63;;;23.20;;
2784;SDS011;57944;48.722;9.316;2022-11-06T00:54:08;129.00;;;30.93;;
2784;SDS011;57944;48.722;9.316;2022-11-06T00:56:40;50.10;;;22.40;;
2784;SDS011;57944;48.722;9.316;2022-11-06T00:59:11;60.63;;;24.57;;
2784;SDS011;57944;48.722;9.316;2022-11-06T01:01:42;106.03;;;27.97;;
2784;SDS011;57944;48.722;9.316;2022-11-06T01:04:14;88.80;;;31.27;;
2784;SDS011;57944;48.722;9.316;2022-11-06T01:06:50;154.67;;;34.80;;
2784;SDS011;57944;48.722;9.316;2022-11-06T01:09:24;177.50;;;33.70;;
2784;SDS011;57944;48.722;9.316;2022-11-06T01:11:58;120.97;;;29.23;;
2784;SDS011;57944;48.722;9.316;2022-11-06T01:14:43;170.50;;;36.40;;
2784;SDS011;57944;48.722;9.316;2022-11-06T01:17:13;238.10;;;41.43;;
2784;SDS011;57944;48.722;9.316;2022-11-06T01:19:43;107.60;;;30.13;;
2784;SDS011;57944;48.722;9.316;2022-11-06T01:22:16;160.63;;;33.80;;
2784;SDS011;57944;48.722;9.316;2022-11-06T01:24:46;278.77;;;43.40;;
2784;SDS011;57944;48.722;9.316;2022-11-06T01:27:16;238.90;;;36.53;;
2784;SDS011;57944;48.722;9.316;2022-11-06T01:29:53;231.40;;;39.90;;
2784;SDS011;57944;48.722;9.316;2022-11-06T01:32:24;235.23;;;34.03;;
2784;SDS011;57944;48.722;9.316;2022-11-06T01:34:54;165.70;;;31.33;;
2784;SDS011;57944;48.722;9.316;2022-11-06T01:37:26;235.87;;;38.27;;
2784;SDS011;57944;48.722;9.316;2022-11-06T01:39:56;160.83;;;33.37;;
2784;SDS011;57944;48.722;9.316;2022-11-06T01:42:27;214.27;;;35.50;;
2784;SDS011;57944;48.722;9.316;2022-11-06T01:45:03;252.57;;;37.80;;
2784;SDS011;57944;48.722;9.316;2022-11-06T01:47:57;93.40;;;26.83;;
2784;SDS011;57944;48.722;9.316;2022-11-06T01:50:28;98.13;;;29.23;;
2784;SDS011;57944;48.722;9.316;2022-11-06T01:53:01;129.63;;;26.83;;
2784;SDS011;57944;48.722;9.316;2022-11-06T01:55:33;76.50;;;22.80;;
2784;SDS011;57944;48.722;9.316;2022-11-06T01:58:09;92.33;;;23.70;;
2784;SDS011;57944;48.722;9.316;2022-11-06T02:00:45;46.37;;;20.37;;
2784;SDS011;57944;48.722;9.316;2022-11-06T02:03:17;37.90;;;19.97;;
2784;SDS011;57944;48.722;9.316;2022-11-06T02:05:48;33.63;;;18.33;;
2784;SDS011;57944;48.722;9.316;2022-11-06T02:08:22;35.60;;;17.50;;
2784;SDS011;57944;48.722;9.316;2022-11-06T02:10:53;26.20;;;16.30;;
2784;SDS011;57944;48.722;9.316;2022-11-06T02:13:26;21.40;;;14.50;;
2784;SDS011;57944;48.722;9.316;2022-11-06T02:16:08;26.53;;;16.13;;
2784;SDS011;57944;48.722;9.316;2022-11-06T02:18:54;21.20;;;15.67;;
2784;SDS011;57944;48.722;9.316;2022-11-06T02:22:03;26.60;;;15.17;;
2784;SDS011;57944;48.722;9.316;2022-11-06T02:25:06;38.73;;;18.03;;
2784;SDS011;57944;48.722;9.316;2022-11-06T02:27:46;25.17;;;14.97;;
2784;SDS011;57944;48.722;9.316;2022-11-06T02:30:28;49.87;;;16.53;;
2784;SDS011;57944;48.722;9.316;2022-11-06T02:33:07;43.50;;;15.90;;
2784;SDS011;57944;48.722;9.316;2022-11-06T02:35:45;109.83;;;26.87;;
2784;SDS011;57944;48.722;9.316;2022-11-06T02:38:22;76.53;;;21.27;;
2784;SDS011;57944;48.722;9.316;2022-11-06T02:40:59;179.80;;;30.37;;
2784;SDS011;57944;48.722;9.316;2022-11-06T02:43:38;96.17;;;23.60;;
2784;SDS011;57944;48.722;9.316;2022-11-06T02:46:17;123.00;;;20.93;;
2784;SDS011;57944;48.722;9.316;2022-11-06T02:48:55;142.43;;;29.40;;
2784;SDS011;57944;48.722;9.316;2022-11-06T02:51:32;141.50;;;28.93;;
2784;SDS011;57944;48.722;9.316;2022-11-06T02:54:08;101.97;;;24.13;;
2784;SDS011;57944;48.722;9.316;2022-11-06T02:56:41;134.60;;;25.10;;
2784;SDS011;57944;48.722;9.316;2022-11-06T02:59:19;113.50;;;23.83;;
2784;SDS011;57944;48.722;9.316;2022-11-06T03:01:54;133.57;;;26.63;;
2784;SDS011;57944;48.722;9.316;2022-11-06T03:04:33;115.03;;;25.13;;
2784;SDS011;57944;48.722;9.316;2022-11-06T03:07:10;134.43;;;27.00;;
2784;SDS011;57944;48.722;9.316;2022-11-06T03:09:50;115.90;;;24.90;;
2784;SDS011;57944;48.722;9.316;2022-11-06T03:12:22;74.33;;;23.30;;
2784;SDS011;57944;48.722;9.316;2022-11-06T03:15:02;117.07;;;24.87;;
2784;SDS011;57944;48.722;9.316;2022-11-06T03:17:46;96.93;;;24.20;;
2784;SDS011;57944;48.722;9.316;2022-11-06T03:20:26;48.70;;;20.37;;
2784;SDS011;57944;48.722;9.316;2022-11-06T03:23:06;72.97;;;19.67;;
2784;SDS011;57944;48.722;9.316;2022-11-06T03:25:45;73.30;;;23.30;;
2784;SDS011;57944;48.722;9.316;2022-11-06T03:28:23;53.13;;;19.50;;
2784;SDS011;57944;48.722;9.316;2022-11-06T03:31:04;112.90;;;24.13;;
2784;SDS011;57944;48.722;9.316;2022-11-06T03:33:42;280.63;;;44.33;;
2784;SDS011;57944;48.722;9.316;2022-11-06T03:36:19;126.83;;;29.37;;
2784;SDS011;57944;48.722;9.316;2022-11-06T03:38:55;161.83;;;29.00;;
2784;SDS011;57944;48.722;9.316;2022-11-06T03:41:31;134.00;;;27.90;;
2784;SDS011;57944;48.722;9.316;2022-11-06T03:44:11;113.63;;;25.67;;
2784;SDS011;57944;48.722;9.316;2022-11-06T03:46:52;83.53;;;21.80;;
2784;SDS011;57944;48.722;9.316;2022-11-06T03:49:30;95.13;;;24.20;;
2784;SDS011;57944;48.722;9.316;2022-11-06T03:52:07;136.83;;;26.90;;
2784;SDS011;57944;48.722;9.316;2022-11-06T03:54:45;95.27;;;24.37;;
2784;SDS011;57944;48.722;9.316;2022-11-06T03:57:24;71.50;;;18.30;;
2784;SDS011;57944;48.722;9.316;2022-11-06T04:00:04;76.27;;;16.57;;
2784;SDS011;57944;48.722;9.316;2022-11-06T04:02:43;138.20;;;27.27;;
2784;SDS011;57944;48.722;9.316;2022-11-06T04:05:31;288.90;;;42.90;;
2784;SDS011;57944;48.722;9.316;2022-11-06T04:08:08;243.80;;;36.10;;
2784;SDS011;57944;48.722;9.316;2022-11-06T04:10:55;99.70;;;22.10;;
2784;SDS011;57944;48.722;9.316;2022-11-06T04:13:43;107.87;;;24.00;;
2784;SDS011;57944;48.722;9.316;2022-11-06T04:16:29;112.43;;;23.90;;
2784;SDS011;57944;48.722;9.316;2022-11-06T04:19:08;229.93;;;37.93;;
2784;SDS011;57944;48.722;9.316;2022-11-06T04:21:47;116.60;;;24.53;;
2784;SDS011;57944;48.722;9.316;2022-11-06T04:24:54;23.10;;;10.60;;
2784;SDS011;57944;48.722;9.316;2022-11-06T04:27:54;130.83;;;25.20;;
2784;SDS011;57944;48.722;9.316;2022-11-06T04:30:38;86.37;;;20.77;;
2784;SDS011;57944;48.722;9.316;2022-11-06T04:33:31;118.13;;;23.97;;
2784;SDS011;57944;48.722;9.316;2022-11-06T04:36:16;115.20;;;21.43;;
2784;SDS011;57944;48.722;9.316;2022-11-06T04:39:03;103.43;;;22.30;;
2784;SDS011;57944;48.722;9.316;2022-11-06T04:41:44;44.37;;;17.37;;
2784;SDS011;57944;48.722;9.316;2022-11-06T04:44:25;66.70;;;19.10;;
2784;SDS011;57944;48.722;9.316;2022-11-06T04:47:02;79.73;;;19.90;;
2784;SDS011;57944;48.722;9.316;2022-11-06T04:49:38;89.70;;;21.20;;
2784;SDS011;57944;48.722;9.316;2022-11-06T04:52:14;158.33;;;30.33;;
2784;SDS011;57944;48.722;9.316;2022-11-06T04:54:49;248.90;;;31.63;;
2784;SDS011;57944;48.722;9.316;2022-11-06T04:57:22;77.43;;;19.97;;
2784;SDS011;57944;48.722;9.316;2022-11-06T04:59:54;78.40;;;20.47;;
2784;SDS011;57944;48.722;9.316;2022-11-06T05:02:24;147.77;;;23.50;;
2784;SDS011;57944;48.722;9.316;2022-11-06T05:04:54;38.03;;;15.70;;
2784;SDS011;57944;48.722;9.316;2022-11-06T05:07:27;71.80;;;19.33;;
2784;SDS011;57944;48.722;9.316;2022-11-06T05:09:57;95.73;;;21.30;;
2784;SDS011;57944;48.722;9.316;2022-11-06T05:12:27;84.57;;;18.00;;
2784;SDS011;57944;48.722;9.316;2022-11-06T05:14:57;154.37;;;27.27;;
2784;SDS011;57944;48.722;9.316;2022-11-06T05:17:27;93.77;;;24.40;;
2784;SDS011;57944;48.722;9.316;2022-11-06T05:20:02;83.43;;;19.63;;
2784;SDS011;57944;48.722;9.316;2022-11-06T05:22:36;88.50;;;17.63;;
2784;SDS011;57944;48.722;9.316;2022-11-06T05:25:21;83.80;;;18.90;;
2784;SDS011;57944;48.722;9.316;2022-11-06T05:27:51;86.77;;;19.97;;
2784;SDS011;57944;48.722;9.316;2022-11-06T05:30:21;35.63;;;14.27;;
2784;SDS011;57944;48.722;9.316;2022-11-06T05:32:52;44.00;;;13.50;;
2784;SDS011;57944;48.722;9.316;2022-11-06T05:35:23;140.27;;;25.80;;
2784;SDS011;57944;48.722;9.316;2022-11-06T05:37:59;89.13;;;21.70;;
2784;SDS011;57944;48.722;9.316;2022-11-06T05:40:31;43.47;;;15.70;;
2784;SDS011;57944;48.722;9.316;2022-11-06T05:43:01;46.63;;;15.83;;
2784;SDS011;57944;48.722;9.316;2022-11-06T05:45:31;67.67;;;15.37;;
2784;SDS011;57944;48.722;9.316;2022-11-06T05:48:01;56.17;;;15.70;;
2784;SDS011;57944;48.722;9.316;2022-11-06T05:50:31;87.87;;;20.77;;
2784;SDS011;57944;48.722;9.316;2022-11-06T05:53:04;37.70;;;11.47;;
2784;SDS011;57944;48.722;9.316;2022-11-06T05:55:34;64.40;;;17.03;;
2784;SDS011;57944;48.722;9.316;2022-11-06T05:58:05;41.03;;;15.47;;
2784;SDS011;57944;48.722;9.316;2022-11-06T06:00:35;60.40;;;17.40;;
2784;SDS011;57944;48.722;9.316;2022-11-06T06:03:05;37.80;;;13.63;;
2784;SDS011;57944;48.722;9.316;2022-11-06T06:05:35;54.67;;;14.43;;
2784;SDS011;57944;48.722;9.316;2022-11-06T06:08:08;57.77;;;13.43;;
2784;SDS011;57944;48.722;9.316;2022-11-06T06:10:39;58.60;;;16.00;;
2784;SDS011;57944;48.722;9.316;2022-11-06T06:13:09;41.00;;;15.50;;
2784;SDS011;57944;48.722;9.316;2022-11-06T06:15:40;97.67;;;20.50;;
2784;SDS011;57944;48.722;9.316;2022-11-06T06:18:11;49.90;;;15.23;;
2784;SDS011;57944;48.722;9.316;2022-11-06T06:20:42;76.13;;;18.27;;
2784;SDS011;57944;48.722;9.316;2022-11-06T06:23:15;34.83;;;13.23;;
2784;SDS011;57944;48.722;9.316;2022-11-06T06:25:45;144.60;;;22.60;;
2784;SDS011;57944;48.722;9.316;2022-11-06T06:28:15;122.50;;;20.87;;
2784;SDS011;57944;48.722;9.316;2022-11-06T06:30:45;147.77;;;28.23;;
2784;SDS011;57944;48.722;9.316;2022-11-06T06:33:15;156.13;;;24.60;;
2784;SDS011;57944;48.722;9.316;2022-11-06T06:35:45;42.93;;;14.50;;
2784;SDS011;57944;48.722;9.316;2022-11-06T06:38:18;53.70;;;15.90;;
2784;SDS011;57944;48.722;9.316;2022-11-06T06:40:48;57.70;;;15.40;;
2784;SDS011;57944;48.722;9.316;2022-11-06T06:43:19;103.03;;;24.87;;
2784;SDS011;57944;48.722;9.316;2022-11-06T06:45:49;96.23;;;15.77;;
2784;SDS011;57944;48.722;9.316;2022-11-06T06:48:19;152.57;;;25.03;;
2784;SDS011;57944;48.722;9.316;2022-11-06T06:50:49;142.80;;;26.13;;
2784;SDS011;57944;48.722;9.316;2022-11-06T06:53:22;72.67;;;18.47;;
2784;SDS011;57944;48.722;9.316;2022-11-06T06:55:52;55.10;;;16.23;;
2784;SDS011;57944;48.722;9.316;2022-11-06T06:58:25;125.07;;;18.93;;
2784;SDS011;57944;48.722;9.316;2022-11-06T07:00:57;39.70;;;14.10;;
2784;SDS011;57944;48.722;9.316;2022-11-06T07:03:28;140.27;;;23.60;;
2784;SDS011;57944;48.722;9.316;2022-11-06T07:05:59;57.97;;;16.00;;
2784;SDS011;57944;48.722;9.316;2022-11-06T07:08:32;77.33;;;16.73;;
2784;SDS011;57944;48.722;9.316;2022-11-06T07:11:03;78.57;;;15.50;;
2784;SDS011;57944;48.722;9.316;2022-11-06T07:13:36;41.93;;;11.13;;
2784;SDS011;57944;48.722;9.316;2022-11-06T07:16:07;52.00;;;14.30;;
2784;SDS011;57944;48.722;9.316;2022-11-06T07:18:39;29.70;;;12.37;;
2784;SDS011;57944;48.722;9.316;2022-11-06T07:21:10;48.27;;;12.93;;
2784;SDS011;57944;48.722;9.316;2022-11-06T07:23:44;55.97;;;13.97;;
2784;SDS011;57944;48.722;9.316;2022-11-06T07:26:14;118.10;;;22.93;;
2784;SDS011;57944;48.722;9.316;2022-11-06T07:28:44;43.37;;;13.50;;
2784;SDS011;57944;48.722;9.316;2022-11-06T07:31:14;88.97;;;14.30;;
2784;SDS011;57944;48.722;9.316;2022-11-06T07:33:44;47.90;;;14.37;;
2784;SDS011;57944;48.722;9.316;2022-11-06T07:36:15;57.30;;;14.57;;
2784;SDS011;57944;48.722;9.316;2022-11-06T07:38:47;54.63;;;14.67;;
2784;SDS011;57944;48.722;9.316;2022-11-06T07:41:17;108.93;;;19.03;;
2784;SDS011;57944;48.722;9.316;2022-11-06T07:43:48;41.33;;;13.17;;
2784;SDS011;57944;48.722;9.316;2022-11-06T07:46:18;128.50;;;24.57;;
2784;SDS011;57944;48.722;9.316;2022-11-06T07:48:48;57.20;;;16.13;;
2784;SDS011;57944;48.722;9.316;2022-11-06T07:51:20;73.10;;;18.40;;
2784;SDS011;57944;48.722;9.316;2022-11-06T07:53:52;147.77;;;24.07;;
2784;SDS011;57944;48.722;9.316;2022-11-06T07:56:22;146.87;;;23.17;;
2784;SDS011;57944;48.722;9.316;2022-11-06T07:58:52;134.30;;;22.60;;
2784;SDS011;57944;48.722;9.316;2022-11-06T08:01:22;37.00;;;15.73;;
2784;SDS011;57944;48.722;9.316;2022-11-06T08:03:53;66.40;;;17.57;;
2784;SDS011;57944;48.722;9.316;2022-11-06T08:06:23;64.47;;;18.70;;
2784;SDS011;57944;48.722;9.316;2022-11-06T08:08:55;35.13;;;15.00;;
2784;SDS011;57944;48.722;9.316;2022-11-06T08:11:25;51.00;;;18.17;;
2784;SDS011;57944;48.722;9.316;2022-11-06T08:13:55;28.83;;;16.67;;
2784;SDS011;57944;48.722;9.316;2022-11-06T08:16:28;54.47;;;19.70;;
2784;SDS011;57944;48.722;9.316;2022-11-06T08:18:59;32.80;;;19.47;;
2784;SDS011;57944;48.722;9.316;2022-11-06T08:21:29;28.03;;;18.13;;
2784;SDS011;57944;48.722;9.316;2022-11-06T08:24:03;27.77;;;15.30;;
2784;SDS011;57944;48.722;9.316;2022-11-06T08:26:34;33.90;;;15.80;;
2784;SDS011;57944;48.722;9.316;2022-11-06T08:29:04;36.47;;;20.07;;
2784;SDS011;57944;48.722;9.316;2022-11-06T08:31:34;38.23;;;19.43;;
2784;SDS011;57944;48.722;9.316;2022-11-06T08:34:04;41.43;;;16.30;;
2784;SDS011;57944;48.722;9.316;2022-11-06T08:36:35;37.83;;;18.67;;
2784;SDS011;57944;48.722;9.316;2022-11-06T08:39:17;30.13;;;15.53;;
2784;SDS011;57944;48.722;9.316;2022-11-06T08:41:47;28.43;;;16.00;;
2784;SDS011;57944;48.722;9.316;2022-11-06T08:44:17;33.27;;;15.37;;
2784;SDS011;57944;48.722;9.316;2022-11-06T08:46:48;25.30;;;15.27;;
2784;SDS011;57944;48.722;9.316;2022-11-06T08:49:18;23.87;;;14.97;;
2784;SDS011;57944;48.722;9.316;2022-11-06T08:51:48;25.57;;;16.67;;
2784;SDS011;57944;48.722;9.316;2022-11-06T08:54:21;28.50;;;17.17;;
2784;SDS011;57944;48.722;9.316;2022-11-06T08:56:51;33.87;;;18.50;;
2784;SDS011;57944;48.722;9.316;2022-11-06T08:59:21;30.43;;;17.77;;
2784;SDS011;57944;48.722;9.316;2022-11-06T09:01:52;33.00;;;18.20;;
2784;SDS011;57944;48.722;9.316;2022-11-06T09:04:22;30.87;;;17.50;;
2784;SDS011;57944;48.722;9.316;2022-11-06T09:06:52;30.03;;;16.30;;
2784;SDS011;57944;48.722;9.316;2022-11-06T09:09:26;40.33;;;18.77;;
2784;SDS011;57944;48.722;9.316;2022-11-06T09:11:57;35.10;;;17.33;;
2784;SDS011;57944;48.722;9.316;2022-11-06T09:14:29;31.83;;;16.83;;
2784;SDS011;57944;48.722;9.316;2022-11-06T09:16:59;27.50;;;14.97;;
2784;SDS011;57944;48.722;9.316;2022-11-06T09:19:29;28.50;;;14.33;;
2784;SDS011;57944;48.722;9.316;2022-11-06T09:21:59;21.43;;;14.17;;
2784;SDS011;57944;48.722;9.316;2022-11-06T09:24:32;22.73;;;14.97;;
2784;SDS011;57944;48.722;9.316;2022-11-06T09:27:22;24.50;;;14.30;;
2784;SDS011;57944;48.722;9.316;2022-11-06T09:29:52;25.97;;;14.80;;
2784;SDS011;57944;48.722;9.316;2022-11-06T09:32:22;29.90;;;16.80;;
2784;SDS011;57944;48.722;9.316;2022-11-06T09:34:52;43.77;;;21.60;;
2784;SDS011;57944;48.722;9.316;2022-11-06T09:37:22;26.50;;;15.57;;
2784;SDS011;57944;48.722;9.316;2022-11-06T09:39:55;30.90;;;16.27;;
2784;SDS011;57944;48.722;9.316;2022-11-06T09:42:45;26.30;;;14.33;;
2784;SDS011;57944;48.722;9.316;2022-11-06T09:45:30;26.63;;;16.27;;
2784;SDS011;57944;48.722;9.316;2022-11-06T09:48:03;28.77;;;14.40;;
2784;SDS011;57944;48.722;9.316;2022-11-06T09:50:46;28.67;;;15.47;;
2784;SDS011;57944;48.722;9.316;2022-11-06T09:53:23;28.93;;;16.23;;
2784;SDS011;57944;48.722;9.316;2022-11-06T09:56:04;28.20;;;16.93;;
2784;SDS011;57944;48.722;9.316;2022-11-06T09:58:41;30.87;;;17.17;;
2784;SDS011;57944;48.722;9.316;2022-11-06T10:01:15;33.33;;;17.70;;
2784;SDS011;57944;48.722;9.316;2022-11-06T10:03:54;33.00;;;17.50;;
2784;SDS011;57944;48.722;9.316;2022-11-06T10:06:28;27.37;;;16.73;;
2784;SDS011;57944;48.722;9.316;2022-11-06T10:08:59;23.27;;;16.33;;
2784;SDS011;57944;48.722;9.316;2022-11-06T10:14:39;23.67;;;14.57;;
2784;SDS011;57944;48.722;9.316;2022-11-06T10:17:28;21.80;;;15.10;;
2784;SDS011;57944;48.722;9.316;2022-11-06T10:20:17;29.10;;;15.07;;
2784;SDS011;57944;48.722;9.316;2022-11-06T10:23:00;21.47;;;15.00;;
2784;SDS011;57944;48.722;9.316;2022-11-06T10:25:41;16.47;;;11.93;;
2784;SDS011;57944;48.722;9.316;2022-11-06T10:28:22;17.40;;;12.57;;
2784;SDS011;57944;48.722;9.316;2022-11-06T10:31:15;17.90;;;11.00;;
2784;SDS011;57944;48.722;9.316;2022-11-06T10:33:58;19.80;;;12.73;;
2784;SDS011;57944;48.722;9.316;2022-11-06T10:36:37;21.03;;;12.80;;
2784;SDS011;57944;48.722;9.316;2022-11-06T10:39:16;16.70;;;10.33;;
2784;SDS011;57944;48.722;9.316;2022-11-06T10:41:52;14.43;;;10.07;;
2784;SDS011;57944;48.722;9.316;2022-11-06T10:44:34;13.43;;;9.93;;
2784;SDS011;57944;48.722;9.316;2022-11-06T10:47:09;16.23;;;10.10;;
2784;SDS011;57944;48.722;9.316;2022-11-06T10:49:48;15.83;;;10.63;;
2784;SDS011;57944;48.722;9.316;2022-11-06T10:52:28;14.10;;;9.97;;
2784;SDS011;57944;48.722;9.316;2022-11-06T10:55:19;13.63;;;9.53;;
2784;SDS011;57944;48.722;9.316;2022-11-06T10:58:15;10.80;;;8.27;;
2784;SDS011;57944;48.722;9.316;2022-11-06T11:00:50;12.40;;;8.03;;
2784;SDS011;57944;48.722;9.316;2022-11-06T11:03:29;12.10;;;7.73;;
2784;SDS011;57944;48.722;9.316;2022-11-06T11:06:03;20.23;;;7.63;;
2784;SDS011;57944;48.722;9.316;2022-11-06T11:08:35;10.97;;;7.97;;
2784;SDS011;57944;48.722;9.316;2022-11-06T11:11:19;10.90;;;7.20;;
2784;SDS011;57944;48.722;9.316;2022-11-06T11:14:11;11.37;;;8.37;;
2784;SDS011;57944;48.722;9.316;2022-11-06T11:16:52;11.00;;;8.00;;
2784;SDS011;57944;48.722;9.316;2022-11-06T11:19:24;10.30;;;6.83;;
2784;SDS011;57944;48.722;9.316;2022-11-06T11:22:04;12.10;;;7.83;;
2784;SDS011;57944;48.722;9.316;2022-11-06T11:24:59;10.50;;;7.77;;
2784;SDS011;57944;48.722;9.316;2022-11-06T11:27:34;11.40;;;8.30;;
2784;SDS011;57944;48.722;9.316;2022-11-06T11:30:18;9.27;;;7.60;;
2784;SDS011;57944;48.722;9.316;2022-11-06T11:32:54;11.57;;;9.33;;
2784;SDS011;57944;48.722;9.316;2022-11-06T11:35:25;13.53;;;9.13;;
2784;SDS011;57944;48.722;9.316;2022-11-06T11:38:03;15.40;;;9.77;;
2784;SDS011;57944;48.722;9.316;2022-11-06T11:40:40;11.20;;;7.23;;
2784;SDS011;57944;48.722;9.316;2022-11-06T11:43:16;12.20;;;8.10;;
2784;SDS011;57944;48.722;9.316;2022-11-06T11:48:51;12.23;;;7.87;;
2784;SDS011;57944;48.722;9.316;2022-11-06T11:51:24;11.73;;;8.27;;
2784;SDS011;57944;48.722;9.316;2022-11-06T11:54:00;12.33;;;8.40;;
2784;SDS011;57944;48.722;9.316;2022-11-06T11:56:42;14.50;;;9.13;;
2784;SDS011;57944;48.722;9.316;2022-11-06T11:59:35;11.50;;;7.03;;
2784;SDS011;57944;48.722;9.316;2022-11-06T12:02:13;13.73;;;7.73;;
2784;SDS011;57944;48.722;9.316;2022-11-06T12:04:56;11.60;;;6.67;;
2784;SDS011;57944;48.722;9.316;2022-11-06T12:07:30;9.13;;;6.47;;
2784;SDS011;57944;48.722;9.316;2022-11-06T12:10:18;10.00;;;7.17;;
2784;SDS011;57944;48.722;9.316;2022-11-06T12:13:01;9.17;;;6.53;;
2784;SDS011;57944;48.722;9.316;2022-11-06T12:15:38;10.13;;;6.97;;
2784;SDS011;57944;48.722;9.316;2022-11-06T12:18:15;8.67;;;6.00;;
2784;SDS011;57944;48.722;9.316;2022-11-06T12:20:53;7.97;;;5.50;;
2784;SDS011;57944;48.722;9.316;2022-11-06T12:23:30;9.03;;;4.57;;
2784;SDS011;57944;48.722;9.316;2022-11-06T12:26:11;5.80;;;3.70;;
2784;SDS011;57944;48.722;9.316;2022-11-06T12:29:00;6.37;;;4.10;;
2784;SDS011;57944;48.722;9.316;2022-11-06T12:31:40;6.67;;;4.10;;
2784;SDS011;57944;48.722;9.316;2022-11-06T12:34:18;6.07;;;4.30;;
2784;SDS011;57944;48.722;9.316;2022-11-06T12:37:07;6.10;;;4.30;;
2784;SDS011;57944;48.722;9.316;2022-11-06T12:39:51;5.83;;;3.90;;
2784;SDS011;57944;48.722;9.316;2022-11-06T12:42:31;5.67;;;3.47;;
2784;SDS011;57944;48.722;9.316;2022-11-06T12:45:05;7.40;;;4.53;;
2784;SDS011;57944;48.722;9.316;2022-11-06T12:47:42;9.13;;;5.40;;
2784;SDS011;57944;48.722;9.316;2022-11-06T12:50:24;6.97;;;4.00;;
2784;SDS011;57944;48.722;9.316;2022-11-06T12:53:12;6.90;;;4.13;;
2784;SDS011;57944;48.722;9.316;2022-11-06T12:55:55;6.00;;;4.07;;
2784;SDS011;57944;48.722;9.316;2022-11-06T13:01:36;7.57;;;4.60;;
2784;SDS011;57944;48.722;9.316;2022-11-06T13:04:22;8.33;;;4.83;;
2784;SDS011;57944;48.722;9.316;2022-11-06T13:10:16;6.40;;;4.20;;
2784;SDS011;57944;48.722;9.316;2022-11-06T13:13:03;7.90;;;3.73;;
2784;SDS011;57944;48.722;9.316;2022-11-06T13:16:13;5.97;;;3.70;;
2784;SDS011;57944;48.722;9.316;2022-11-06T13:18:57;8.57;;;4.30;;
2784;SDS011;57944;48.722;9.316;2022-11-06T13:21:49;6.83;;;4.03;;
2784;SDS011;57944;48.722;9.316;2022-11-06T13:24:45;10.10;;;4.43;;
2784;SDS011;57944;48.722;9.316;2022-11-06T13:27:29;9.03;;;5.07;;
2784;SDS011;57944;48.722;9.316;2022-11-06T13:30:11;6.23;;;4.13;;
2784;SDS011;57944;48.722;9.316;2022-11-06T13:32:46;6.53;;;4.93;;
2784;SDS011;57944;48.722;9.316;2022-11-06T13:35:27;7.67;;;4.90;;
2784;SDS011;57944;48.722;9.316;2022-11-06T13:38:00;7.13;;;5.47;;
2784;SDS011;57944;48.722;9.316;2022-11-06T13:40:35;7.10;;;4.67;;
2784;SDS011;57944;48.722;9.316;2022-11-06T13:43:14;6.10;;;4.13;;
2784;SDS011;57944;48.722;9.316;2022-11-06T13:45:50;5.20;;;3.77;;
2784;SDS011;57944;48.722;9.316;2022-11-06T13:48:33;7.20;;;4.40;;
2784;SDS011;57944;48.722;9.316;2022-11-06T13:51:16;7.40;;;4.67;;
2784;SDS011;57944;48.722;9.316;2022-11-06T13:54:03;5.50;;;3.80;;
2784;SDS011;57944;48.722;9.316;2022-11-06T14:00:05;9.20;;;4.50;;
2784;SDS011;57944;48.722;9.316;2022-11-06T14:06:17;5.27;;;3.47;;
2784;SDS011;57944;48.722;9.316;2022-11-06T14:08:50;7.13;;;5.00;;
2784;SDS011;57944;48.722;9.316;2022-11-06T14:11:25;6.33;;;4.20;;
2784;SDS011;57944;48.722;9.316;2022-11-06T14:13:59;8.53;;;5.30;;
2784;SDS011;57944;48.722;9.316;2022-11-06T14:16:35;7.27;;;4.93;;
2784;SDS011;57944;48.722;9.316;2022-11-06T14:19:10;8.00;;;6.00;;
2784;SDS011;57944;48.722;9.316;2022-11-06T14:21:46;6.50;;;4.50;;
2784;SDS011;57944;48.722;9.316;2022-11-06T14:27:09;7.97;;;5.37;;
2784;SDS011;57944;48.722;9.316;2022-11-06T14:30:02;9.17;;;4.67;;
2784;SDS011;57944;48.722;9.316;2022-11-06T14:32:48;6.57;;;4.90;;
2784;SDS011;57944;48.722;9.316;2022-11-06T14:44:33;8.27;;;5.80;;
2784;SDS011;57944;48.722;9.316;2022-11-06T14:47:24;8.20;;;5.23;;
2784;SDS011;57944;48.722;9.316;2022-11-06T14:50:07;8.07;;;5.53;;
2784;SDS011;57944;48.722;9.316;2022-11-06T14:52:54;9.30;;;6.10;;
2784;SDS011;57944;48.722;9.316;2022-11-06T14:55:29;13.17;;;8.50;;
2784;SDS011;57944;48.722;9.316;2022-11-06T14:58:13;9.67;;;7.07;;
2784;SDS011;57944;48.722;9.316;2022-11-06T15:00:49;8.90;;;5.77;;
2784;SDS011;57944;48.722;9.316;2022-11-06T15:03:24;8.60;;;5.77;;
2784;SDS011;57944;48.722;9.316;2022-11-06T15:06:04;8.17;;;5.70;;
2784;SDS011;57944;48.722;9.316;2022-11-06T15:08:58;10.47;;;6.13;;
2784;SDS011;57944;48.722;9.316;2022-11-06T15:17:25;8.10;;;5.60;;
2784;SDS011;57944;48.722;9.316;2022-11-06T15:26:00;8.17;;;5.67;;
2784;SDS011;57944;48.722;9.316;2022-11-06T15:28:38;9.80;;;6.80;;
2784;SDS011;57944;48.722;9.316;2022-11-06T15:31:15;10.40;;;6.63;;
2784;SDS011;57944;48.722;9.316;2022-11-06T15:33:50;11.87;;;7.20;;
2784;SDS011;57944;48.722;9.316;2022-11-06T15:36:27;9.60;;;7.30;;
2784;SDS011;57944;48.722;9.316;2022-11-06T15:39:28;9.13;;;6.23;;
2784;SDS011;57944;48.722;9.316;2022-11-06T15:42:07;14.70;;;9.03;;
2784;SDS011;57944;48.722;9.316;2022-11-06T15:44:43;13.60;;;8.43;;
2784;SDS011;57944;48.722;9.316;2022-11-06T15:47:19;12.30;;;7.93;;
2784;SDS011;57944;48.722;9.316;2022-11-06T15:50:04;13.10;;;8.47;;
2784;SDS011;57944;48.722;9.316;2022-11-06T15:52:44;12.87;;;8.30;;
2784;SDS011;57944;48.722;9.316;2022-11-06T15:55:25;16.30;;;10.00;;
2784;SDS011;57944;48.722;9.316;2022-11-06T15:58:06;17.63;;;10.17;;
2784;SDS011;57944;48.722;9.316;2022-11-06T16:00:42;15.70;;;7.93;;
2784;SDS011;57944;48.722;9.316;2022-11-06T16:03:14;11.53;;;8.03;;
2784;SDS011;57944;48.722;9.316;2022-11-06T16:05:47;9.80;;;6.53;;
2784;SDS011;57944;48.722;9.316;2022-11-06T16:08:18;12.57;;;8.00;;
2784;SDS011;57944;48.722;9.316;2022-11-06T16:10:54;16.57;;;9.10;;
2784;SDS011;57944;48.722;9.316;2022-11-06T16:13:26;11.20;;;7.93;;
2784;SDS011;57944;48.722;9.316;2022-11-06T16:15:57;12.40;;;10.40;;